Time;durP1;ratioP1;P1;durP2;ratioP2;P2;SDS_P1;SDS_P2;PMS_P1;PMS_P2;Temp;Humidity;BMP_temperature;BMP_pressure;BME280_temperature;BME280_humidity;BME280_pressure;Samples;Min_cycle;Max_cycle;Signal;HPM_P1;HPM_P2
2022/03/08 00:02:20;;;;;;;;;;;;;;;-2.14;46.13;96922.44;5004136;28;19950;-72
2022/03/08 00:04:46;;;;;;;;;;;;;;;-2.14;46.39;96922.44;5007429;28;19948;-72
2022/03/08 00:07:12;;;;;;;;;;;;;;;-2.14;46.05;96925.00;5001324;28;19955;-72
2022/03/08 00:09:38;;;;;;;;;;;;;;;-2.15;46.44;96926.75;5008379;28;19956;-75
2022/03/08 00:12:04;;;;;;;;;;;;;;;-2.17;46.47;96923.50;5013998;28;19968;-72
2022/03/08 00:14:32;;;;;;;;;;;;;;;-2.18;46.30;96923.63;5009524;28;19952;-72
2022/03/08 00:16:57;;;;;;;;;;;;;;;-2.20;46.17;96922.97;5002506;28;20434;-72
2022/03/08 00:19:23;;;;;;;;;;;;;;;-2.22;46.31;96917.13;4991402;28;19959;-72
2022/03/08 00:21:49;;;;;;;;;;;;;;;-2.22;46.75;96922.28;5013637;28;19961;-73
2022/03/08 00:24:16;;;;;;;;;;;;;;;-2.25;47.04;96918.19;5005241;28;19959;-73
2022/03/08 00:26:43;;;;;;;;;;;;;;;-2.27;47.19;96920.91;5016182;28;19961;-73
2022/03/08 00:29:09;;;;;;;;;;;;;;;-2.29;46.88;96925.34;5005776;28;19956;-71
2022/03/08 00:31:35;;;;;;;;;;;;;;;-2.31;46.52;96924.66;5005652;28;19974;-72
2022/03/08 00:34:01;;;;;;;;;;;;;;;-2.33;46.57;96923.13;5011508;28;20035;-72
2022/03/08 00:36:27;;;;;;;;;;;;;;;-2.34;47.65;96924.88;5007134;28;20368;-72
2022/03/08 00:38:53;;;;;;;;;;;;;;;-2.36;47.42;96915.69;5005549;28;20302;-72
2022/03/08 00:41:20;;;;;;;;;;;;;;;-2.37;46.98;96921.75;5006749;28;20347;-72
2022/03/08 00:43:46;;;;;;;;;;;;;;;-2.38;47.26;96922.69;5010458;28;19956;-72
2022/03/08 00:46:12;;;;;;;;;;;;;;;-2.40;47.14;96920.25;5004688;28;20045;-72
2022/03/08 00:48:38;;;;;;;;;;;;;;;-2.43;47.14;96915.38;5005286;28;20399;-72
2022/03/08 00:51:04;;;;;;;;;;;;;;;-2.46;47.04;96926.72;5006264;28;20441;-72
2022/03/08 00:53:30;;;;;;;;;;;;;;;-2.49;46.82;96916.69;5004189;28;20334;-72
2022/03/08 00:55:55;;;;;;;;;;;;;;;-2.48;46.95;96917.47;5001300;28;19958;-72
2022/03/08 00:58:21;;;;;;;;;;;;;;;-2.50;46.63;96909.94;5006872;28;19959;-72
2022/03/08 01:00:47;;;;;;;;;;;;;;;-2.51;47.22;96915.19;5002934;28;19956;-72
2022/03/08 01:03:13;;;;;;;;;;;;;;;-2.51;47.05;96912.63;5005032;28;19956;-72
2022/03/08 01:05:39;;;;;;;;;;;;;;;-2.52;47.17;96909.25;5008788;28;20006;-72
2022/03/08 01:08:42;;;;;;;;;;;;;;;-2.58;46.95;96909.72;5001316;28;19952;-72
2022/03/08 01:11:08;;;;;;;;;;;;;;;-2.61;47.05;96915.09;4982727;28;19953;-72
2022/03/08 01:13:34;;;;;;;;;;;;;;;-2.64;47.38;96909.41;5012105;28;19962;-72
2022/03/08 01:16:00;;;;;;;;;;;;;;;-2.67;47.95;96918.16;5002109;28;20433;-72
2022/03/08 01:18:26;;;;;;;;;;;;;;;-2.71;47.43;96914.22;5006328;28;19994;-72
2022/03/08 01:20:52;;;;;;;;;;;;;;;-2.75;47.28;96911.09;5010978;28;20419;-72
2022/03/08 01:23:18;;;;;;;;;;;;;;;-2.78;47.33;96906.19;5000810;28;20318;-71
2022/03/08 01:25:43;;;;;;;;;;;;;;;-2.77;47.86;96910.41;5004713;28;19972;-72
2022/03/08 01:28:09;;;;;;;;;;;;;;;-2.80;48.31;96908.06;5009562;28;19959;-71
2022/03/08 01:30:35;;;;;;;;;;;;;;;-2.79;47.89;96901.16;5005846;28;19954;-72
2022/03/08 01:33:01;;;;;;;;;;;;;;;-2.81;47.76;96905.63;5005682;28;19970;-72
2022/03/08 01:35:27;;;;;;;;;;;;;;;-2.82;48.45;96901.44;5006282;28;20013;-72
2022/03/08 01:37:53;;;;;;;;;;;;;;;-2.82;47.71;96894.53;5009973;28;19953;-72
2022/03/08 01:40:19;;;;;;;;;;;;;;;-2.84;48.26;96891.28;5003115;28;20010;-72
2022/03/08 01:42:47;;;;;;;;;;;;;;;-2.90;47.91;96889.19;5000656;28;19957;-72
2022/03/08 01:45:15;;;;;;;;;;;;;;;-2.96;47.57;96893.09;5004193;28;19980;-72
2022/03/08 01:47:41;;;;;;;;;;;;;;;-3.01;48.26;96890.06;5008053;28;19961;-72
2022/03/08 01:50:07;;;;;;;;;;;;;;;-3.05;48.47;96893.81;4996569;28;20317;-72
2022/03/08 01:52:33;;;;;;;;;;;;;;;-3.08;48.56;96888.94;5001097;28;19971;-72
2022/03/08 01:54:59;;;;;;;;;;;;;;;-3.10;48.69;96883.91;5001429;28;19962;-72
2022/03/08 01:57:25;;;;;;;;;;;;;;;-3.09;48.99;96887.28;5007754;28;19959;-72
2022/03/08 01:59:53;;;;;;;;;;;;;;;-3.10;48.22;96883.13;4996740;28;20360;-72
2022/03/08 02:02:19;;;;;;;;;;;;;;;-3.11;48.63;96887.44;5010411;28;20322;-72
2022/03/08 02:04:46;;;;;;;;;;;;;;;-3.10;48.98;96881.34;5003349;28;19963;-72
2022/03/08 02:07:11;;;;;;;;;;;;;;;-3.10;49.03;96876.22;4987507;28;20375;-73
2022/03/08 02:09:38;;;;;;;;;;;;;;;-3.11;48.53;96868.63;5005350;28;19988;-72
2022/03/08 02:12:05;;;;;;;;;;;;;;;-3.11;49.17;96877.16;5003910;28;19969;-72
2022/03/08 02:14:30;;;;;;;;;;;;;;;-3.11;49.01;96876.34;5005735;28;19960;-72
2022/03/08 02:16:56;;;;;;;;;;;;;;;-3.13;48.32;96871.34;5001611;28;19948;-72
2022/03/08 02:19:22;;;;;;;;;;;;;;;-3.15;48.85;96873.22;5007858;28;19961;-72
2022/03/08 02:21:49;;;;;;;;;;;;;;;-3.19;49.22;96876.13;5004215;28;19957;-72
2022/03/08 02:24:15;;;;;;;;;;;;;;;-3.23;48.79;96870.44;5002319;28;19961;-72
2022/03/08 02:26:41;;;;;;;;;;;;;;;-3.27;48.62;96866.50;5006081;28;19955;-73
2022/03/08 02:29:08;;;;;;;;;;;;;;;-3.30;49.24;96865.00;5008195;28;20498;-72
2022/03/08 02:31:35;;;;;;;;;;;;;;;-3.34;48.29;96863.59;5007703;28;20439;-72
2022/03/08 02:34:01;;;;;;;;;;;;;;;-3.40;49.46;96851.25;5005747;28;19960;-72
2022/03/08 02:36:27;;;;;;;;;;;;;;;-3.49;49.09;96842.50;5004432;28;19949;-71
2022/03/08 02:38:53;;;;;;;;;;;;;;;-3.54;49.16;96831.81;5003254;28;19983;-72
2022/03/08 02:41:19;;;;;;;;;;;;;;;-3.56;49.51;96836.25;4999649;28;20431;-73
2022/03/08 02:43:45;;;;;;;;;;;;;;;-3.56;50.11;96836.25;5006126;28;20056;-72
2022/03/08 02:46:10;;;;;;;;;;;;;;;-3.54;49.49;96829.25;5001042;28;20379;-72
2022/03/08 02:48:36;;;;;;;;;;;;;;;-3.53;49.01;96835.19;5001022;28;19954;-72
2022/03/08 02:51:03;;;;;;;;;;;;;;;-3.52;49.73;96829.94;5003849;28;20372;-72
2022/03/08 02:53:29;;;;;;;;;;;;;;;-3.48;50.09;96833.09;5001784;28;19980;-72
2022/03/08 02:55:55;;;;;;;;;;;;;;;-3.44;50.43;96824.22;5010536;28;19956;-72
2022/03/08 02:58:21;;;;;;;;;;;;;;;-3.39;49.42;96831.56;5003879;28;19963;-72
2022/03/08 03:00:47;;;;;;;;;;;;;;;-3.38;49.47;96828.88;5004284;28;20334;-72
2022/03/08 03:03:13;;;;;;;;;;;;;;;-3.37;49.46;96833.06;4997743;28;19987;-72
2022/03/08 03:05:39;;;;;;;;;;;;;;;-3.38;49.79;96828.03;5006031;28;20010;-71
2022/03/08 03:08:05;;;;;;;;;;;;;;;-3.39;49.93;96823.84;4995309;28;19952;-72
2022/03/08 03:10:31;;;;;;;;;;;;;;;-3.42;49.20;96827.50;4998218;28;19950;-72
2022/03/08 03:12:58;;;;;;;;;;;;;;;-3.44;50.66;96816.53;5004529;28;19968;-72
2022/03/08 03:15:24;;;;;;;;;;;;;;;-3.45;49.81;96820.03;5000829;28;19952;-72
2022/03/08 03:17:51;;;;;;;;;;;;;;;-3.48;50.34;96815.97;5011640;28;19954;-73
2022/03/08 03:20:18;;;;;;;;;;;;;;;-3.47;49.94;96812.44;5004280;28;19958;-73
2022/03/08 03:22:45;;;;;;;;;;;;;;;-3.47;50.33;96809.88;5003335;28;19954;-72
2022/03/08 03:25:11;;;;;;;;;;;;;;;-3.46;50.95;96808.16;5009317;28;19966;-73
2022/03/08 03:27:38;;;;;;;;;;;;;;;-3.47;50.09;96811.63;5001771;28;19962;-73
2022/03/08 03:30:05;;;;;;;;;;;;;;;-3.49;49.39;96805.81;5001631;28;19968;-72
2022/03/08 03:32:31;;;;;;;;;;;;;;;-3.49;50.45;96804.06;5002397;28;19969;-72
2022/03/08 03:34:57;;;;;;;;;;;;;;;-3.50;50.39;96807.56;5005736;28;20368;-72
2022/03/08 03:37:23;;;;;;;;;;;;;;;-3.54;49.80;96808.75;5003610;28;19962;-73
2022/03/08 03:39:50;;;;;;;;;;;;;;;-3.55;50.05;96811.41;4996010;28;20325;-71
2022/03/08 03:42:16;;;;;;;;;;;;;;;-3.55;50.83;96801.16;4982349;28;19952;-71
2022/03/08 03:44:41;;;;;;;;;;;;;;;-3.55;50.47;96808.84;5006504;28;19984;-73
2022/03/08 03:47:07;;;;;;;;;;;;;;;-3.58;50.02;96796.28;5009661;28;20000;-74
2022/03/08 03:49:33;;;;;;;;;;;;;;;-3.57;49.69;96803.88;5003750;28;20001;-72
2022/03/08 03:51:59;;;;;;;;;;;;;;;-3.59;50.71;96797.22;5013383;28;19969;-74
2022/03/08 03:54:25;;;;;;;;;;;;;;;-3.59;49.71;96795.50;5001329;28;20436;-73
2022/03/08 03:56:51;;;;;;;;;;;;;;;-3.62;50.43;96795.72;5002940;28;19954;-73
2022/03/08 03:59:17;;;;;;;;;;;;;;;-3.62;49.76;96794.91;5013343;28;19962;-72
2022/03/08 04:01:43;;;;;;;;;;;;;;;-3.63;50.34;96791.53;4985935;28;20004;-72
2022/03/08 04:04:09;;;;;;;;;;;;;;;-3.63;50.59;96793.25;4998197;28;20360;-72
2022/03/08 04:06:35;;;;;;;;;;;;;;;-3.67;49.73;96793.53;5007735;28;20006;-72
2022/03/08 04:09:03;;;;;;;;;;;;;;;-3.70;49.71;96795.50;4986895;28;19971;-72
2022/03/08 04:11:28;;;;;;;;;;;;;;;-3.68;50.03;96791.06;4979418;28;19954;-72
2022/03/08 04:13:54;;;;;;;;;;;;;;;-3.70;49.94;96788.63;5005827;28;19968;-75
2022/03/08 04:16:20;;;;;;;;;;;;;;;-3.67;49.94;96796.09;4997450;28;20352;-75
2022/03/08 04:18:46;;;;;;;;;;;;;;;-3.63;49.78;96796.66;4994734;28;20393;-75
2022/03/08 04:21:12;;;;;;;;;;;;;;;-3.63;50.21;96801.78;5008030;28;19955;-75
2022/03/08 04:23:38;;;;;;;;;;;;;;;-3.64;50.06;96796.78;4999826;28;20040;-75
2022/03/08 04:26:04;;;;;;;;;;;;;;;-3.63;49.95;96791.53;5004863;28;19962;-75
2022/03/08 04:28:30;;;;;;;;;;;;;;;-3.60;49.90;96798.16;4998069;28;19958;-74
2022/03/08 04:30:56;;;;;;;;;;;;;;;-3.60;49.49;96793.84;5013352;28;20055;-76
2022/03/08 04:33:21;;;;;;;;;;;;;;;-3.61;49.53;96799.94;5013031;28;20418;-77
2022/03/08 04:35:47;;;;;;;;;;;;;;;-3.64;50.24;96800.16;5004776;28;20413;-72
2022/03/08 04:38:13;;;;;;;;;;;;;;;-3.67;49.66;96795.28;5011242;28;20324;-72
2022/03/08 04:40:39;;;;;;;;;;;;;;;-3.70;49.81;96798.06;5008908;28;20049;-72
2022/03/08 04:43:05;;;;;;;;;;;;;;;-3.70;50.43;96790.38;5016412;28;19962;-72
2022/03/08 04:45:31;;;;;;;;;;;;;;;-3.70;49.93;96798.06;5010465;28;19990;-72
2022/03/08 04:47:57;;;;;;;;;;;;;;;-3.70;49.80;96793.75;5008221;28;20441;-72
2022/03/08 04:50:23;;;;;;;;;;;;;;;-3.71;50.14;96794.69;5002479;28;19982;-72
2022/03/08 04:52:49;;;;;;;;;;;;;;;-3.69;50.10;96787.69;5004322;28;19962;-72
2022/03/08 04:55:15;;;;;;;;;;;;;;;-3.70;50.05;96791.19;5011530;28;19965;-72
2022/03/08 04:57:41;;;;;;;;;;;;;;;-3.65;50.46;96798.53;5008719;28;19957;-72
2022/03/08 05:00:11;;;;;;;;;;;;;;;-3.64;49.53;96792.47;5005121;28;19951;-72
2022/03/08 05:02:38;;;;;;;;;;;;;;;-3.60;49.29;96798.97;5010837;28;19948;-72
2022/03/08 05:05:05;;;;;;;;;;;;;;;-3.58;49.39;96797.09;5008319;28;19961;-73
2022/03/08 05:07:31;;;;;;;;;;;;;;;-3.54;49.81;96798.50;5008423;28;19957;-72
2022/03/08 05:09:57;;;;;;;;;;;;;;;-3.50;49.77;96791.38;5006383;28;20004;-72
2022/03/08 05:12:23;;;;;;;;;;;;;;;-3.45;49.30;96789.25;5006260;28;20061;-72
2022/03/08 05:14:49;;;;;;;;;;;;;;;-3.41;49.45;96788.06;5004542;28;19965;-72
2022/03/08 05:17:14;;;;;;;;;;;;;;;-3.36;49.51;96790.25;5010148;28;20022;-73
2022/03/08 05:19:40;;;;;;;;;;;;;;;-3.33;49.74;96795.97;4996768;28;19998;-73
2022/03/08 05:22:06;;;;;;;;;;;;;;;-3.31;49.17;96798.44;4991844;28;19964;-74
2022/03/08 05:24:32;;;;;;;;;;;;;;;-3.34;49.37;96802.06;5006772;28;19962;-72
2022/03/08 05:26:58;;;;;;;;;;;;;;;-3.36;49.59;96795.41;5007052;28;19964;-72
2022/03/08 05:29:24;;;;;;;;;;;;;;;-3.40;49.49;96796.56;5002730;28;19958;-72
2022/03/08 05:31:49;;;;;;;;;;;;;;;-3.43;50.21;96799.41;5007269;28;20407;-72
2022/03/08 05:34:15;;;;;;;;;;;;;;;-3.42;49.58;96808.69;4989384;28;19976;-72
2022/03/08 05:36:41;;;;;;;;;;;;;;;-3.45;49.95;96801.25;5009653;28;19995;-72
2022/03/08 05:39:07;;;;;;;;;;;;;;;-3.47;49.07;96809.88;5009589;28;19957;-73
2022/03/08 05:41:33;;;;;;;;;;;;;;;-3.50;49.38;96805.00;4999350;28;19953;-73
2022/03/08 05:43:59;;;;;;;;;;;;;;;-3.55;50.22;96799.44;5012203;28;19951;-73
2022/03/08 05:46:25;;;;;;;;;;;;;;;-3.57;50.18;96792.78;5006561;28;19966;-73
2022/03/08 05:48:51;;;;;;;;;;;;;;;-3.59;50.29;96798.06;5009301;28;19961;-73
2022/03/08 05:51:17;;;;;;;;;;;;;;;-3.58;50.11;96798.84;5005284;28;20326;-73
2022/03/08 05:53:43;;;;;;;;;;;;;;;-3.57;50.54;96803.88;5000527;28;20299;-73
2022/03/08 05:56:09;;;;;;;;;;;;;;;-3.55;50.71;96808.84;5011935;28;20055;-73
2022/03/08 05:58:35;;;;;;;;;;;;;;;-3.55;50.41;96808.84;5004353;28;20419;-73
2022/03/08 06:01:00;;;;;;;;;;;;;;;-3.55;50.55;96804.56;5007098;28;20025;-73
2022/03/08 06:03:26;;;;;;;;;;;;;;;-3.54;50.82;96811.31;4999353;28;20006;-72
2022/03/08 06:05:52;;;;;;;;;;;;;;;-3.53;50.11;96810.38;5007705;28;20400;-72
2022/03/08 06:08:18;;;;;;;;;;;;;;;-3.52;50.72;96800.94;5007006;28;19955;-72
2022/03/08 06:10:44;;;;;;;;;;;;;;;-3.51;50.55;96800.84;4995755;28;19962;-72
2022/03/08 06:13:10;;;;;;;;;;;;;;;-3.49;50.63;96793.81;5006860;28;19970;-72
2022/03/08 06:15:36;;;;;;;;;;;;;;;-3.47;50.60;96786.00;5004318;28;20380;-72
2022/03/08 06:18:02;;;;;;;;;;;;;;;-3.42;50.57;96789.03;5003285;28;20320;-72
2022/03/08 06:20:27;;;;;;;;;;;;;;;-3.40;50.92;96791.44;5008386;28;19952;-72
2022/03/08 06:22:54;;;;;;;;;;;;;;;-3.37;50.99;96783.53;4995221;28;19960;-72
2022/03/08 06:25:21;;;;;;;;;;;;;;;-3.26;51.11;96783.47;5003038;28;19953;-72
2022/03/08 06:27:46;;;;;;;;;;;;;;;-2.63;50.59;96785.22;5004224;28;19951;-72
2022/03/08 06:30:12;;;;;;;;;;;;;;;-1.68;49.28;96790.88;4985523;28;20008;-74
2022/03/08 06:32:38;;;;;;;;;;;;;;;-0.67;47.92;96786.22;5006747;28;19974;-73
2022/03/08 06:35:04;;;;;;;;;;;;;;;0.25;46.40;96788.97;5005716;28;20005;-73
2022/03/08 06:37:30;;;;;;;;;;;;;;;1.06;45.41;96788.13;4983950;28;19965;-74
2022/03/08 06:39:56;;;;;;;;;;;;;;;1.69;44.51;96794.84;5012544;28;19956;-74
2022/03/08 06:42:22;;;;;;;;;;;;;;;2.22;42.89;96804.13;4995300;28;20031;-74
2022/03/08 06:44:48;;;;;;;;;;;;;;;2.66;42.96;96809.13;5003470;28;19978;-74
2022/03/08 06:47:14;;;;;;;;;;;;;;;3.01;41.67;96809.81;5009755;28;19966;-72
2022/03/08 06:49:41;;;;;;;;;;;;;;;3.30;40.81;96821.47;4999522;28;19972;-72
2022/03/08 06:52:07;;;;;;;;;;;;;;;3.47;40.76;96815.31;5001042;28;20416;-72
2022/03/08 06:54:36;;;;;;;;;;;;;;;3.55;40.27;96819.66;5006924;28;19998;-72
2022/03/08 06:57:03;;;;;;;;;;;;;;;3.65;39.96;96822.91;5008582;28;19971;-72
2022/03/08 06:59:29;;;;;;;;;;;;;;;3.72;39.21;96828.25;5003867;28;19949;-72
2022/03/08 07:01:56;;;;;;;;;;;;;;;3.75;40.02;96831.31;5000029;28;20020;-72
2022/03/08 07:04:22;;;;;;;;;;;;;;;3.83;38.22;96836.50;5003138;28;19971;-73
2022/03/08 07:06:48;;;;;;;;;;;;;;;3.86;39.08;96833.56;5006337;28;19949;-72
2022/03/08 07:09:14;;;;;;;;;;;;;;;3.85;39.44;96836.31;5003605;28;19954;-72
2022/03/08 07:11:40;;;;;;;;;;;;;;;3.88;39.77;96832.59;5003126;28;19948;-72
2022/03/08 07:14:06;;;;;;;;;;;;;;;3.92;38.50;96839.06;4987630;28;20437;-72
2022/03/08 07:16:33;;;;;;;;;;;;;;;4.05;38.41;96844.53;5003416;28;19969;-72
2022/03/08 07:18:59;;;;;;;;;;;;;;;4.13;38.75;96843.72;5004567;28;19982;-72
2022/03/08 07:21:25;;;;;;;;;;;;;;;4.19;38.65;96851.63;4991606;28;19960;-72
2022/03/08 07:23:51;;;;;;;;;;;;;;;4.20;37.98;96847.25;4998854;28;20342;-72
2022/03/08 07:26:17;;;;;;;;;;;;;;;4.28;38.46;96852.41;5004535;28;19956;-73
2022/03/08 07:28:43;;;;;;;;;;;;;;;4.48;37.36;96850.22;5003211;28;19998;-73
2022/03/08 07:31:09;;;;;;;;;;;;;;;4.59;38.44;96857.63;4983527;28;20025;-73
2022/03/08 07:33:35;;;;;;;;;;;;;;;4.76;37.32;96854.97;4999382;28;20019;-73
2022/03/08 07:36:01;;;;;;;;;;;;;;;4.98;37.48;96858.59;5003539;28;19961;-73
2022/03/08 07:38:27;;;;;;;;;;;;;;;5.13;37.64;96867.25;5005486;28;19960;-73
2022/03/08 07:40:52;;;;;;;;;;;;;;;5.44;37.62;96854.19;5008834;28;19954;-73
2022/03/08 07:43:19;;;;;;;;;;;;;;;5.76;37.46;96857.47;5006528;28;20020;-73
2022/03/08 07:45:45;;;;;;;;;;;;;;;5.94;37.19;96859.72;4999159;28;19982;-73
2022/03/08 07:48:10;;;;;;;;;;;;;;;6.10;36.50;96851.78;5008100;28;20334;-74
2022/03/08 07:50:37;;;;;;;;;;;;;;;6.34;36.92;96849.91;5005082;28;20003;-73
2022/03/08 07:53:06;;;;;;;;;;;;;;;6.63;36.83;96851.66;5001386;28;19971;-73
2022/03/08 07:55:32;;;;;;;;;;;;;;;6.60;34.67;96839.00;5013655;28;20325;-73
2022/03/08 07:57:58;;;;;;;;;;;;;;;6.50;36.13;96847.09;5000309;28;19953;-75
2022/03/08 08:00:25;;;;;;;;;;;;;;;6.89;50.05;96845.16;5006975;28;19963;-73
2022/03/08 08:02:51;;;;;;;;;;;;;;;7.51;36.31;96836.66;5008514;28;19950;-74
2022/03/08 08:05:17;;;;;;;;;;;;;;;7.69;33.63;96851.09;5004004;28;19961;-74
2022/03/08 08:07:44;;;;;;;;;;;;;;;7.76;35.92;96840.69;4987526;28;19958;-73
2022/03/08 08:10:11;;;;;;;;;;;;;;;7.73;34.19;96841.88;5005039;28;19953;-73
2022/03/08 08:12:37;;;;;;;;;;;;;;;7.81;33.78;96839.13;5006630;28;19950;-73
2022/03/08 08:15:03;;;;;;;;;;;;;;;7.62;33.19;96838.00;5006653;28;19950;-73
2022/03/08 08:17:30;;;;;;;;;;;;;;;7.65;34.71;96831.56;5004112;28;20448;-73
2022/03/08 08:19:57;;;;;;;;;;;;;;;7.73;34.35;96847.09;5012722;28;19952;-73
2022/03/08 08:22:23;;;;;;;;;;;;;;;7.82;33.35;96845.94;5007019;28;20011;-73
2022/03/08 08:24:48;;;;;;;;;;;;;;;7.96;34.93;96849.47;5007619;28;19959;-73
2022/03/08 08:27:14;;;;;;;;;;;;;;;7.88;33.00;96847.81;5007005;28;20017;-73
2022/03/08 08:29:40;;;;;;;;;;;;;;;7.90;32.83;96840.59;5006182;28;20353;-73
2022/03/08 08:32:06;;;;;;;;;;;;;;;7.62;34.44;96845.00;5006260;28;19961;-73
2022/03/08 08:34:32;;;;;;;;;;;;;;;7.27;34.90;96834.47;5001578;28;20360;-74
2022/03/08 08:36:58;;;;;;;;;;;;;;;7.28;35.14;96836.06;5008585;28;19953;-73
2022/03/08 08:39:24;;;;;;;;;;;;;;;7.41;34.08;96841.44;5009115;28;19952;-73
2022/03/08 08:41:50;;;;;;;;;;;;;;;7.48;34.18;96837.06;5003016;28;19949;-73
2022/03/08 08:44:18;;;;;;;;;;;;;;;7.58;34.04;96826.31;5008853;28;19994;-74
2022/03/08 08:46:47;;;;;;;;;;;;;;;7.45;34.53;96832.22;5000112;28;19970;-74
2022/03/08 08:49:13;;;;;;;;;;;;;;;7.16;33.97;96832.34;5004674;28;19955;-73
2022/03/08 08:51:39;;;;;;;;;;;;;;;6.84;34.78;96824.81;5009230;28;19966;-73
2022/03/08 08:54:05;;;;;;;;;;;;;;;6.67;35.14;96836.47;5006218;28;19995;-73
2022/03/08 08:56:35;;;;;;;;;;;;;;;6.41;34.16;96836.97;5004448;28;19948;-73
2022/03/08 08:59:04;;;;;;;;;;;;;;;5.98;34.25;96832.38;5000789;28;19982;-73
2022/03/08 09:01:30;;;;;;;;;;;;;;;5.94;35.87;96833.69;5008919;28;20034;-73
2022/03/08 09:03:56;;;;;;;;;;;;;;;5.96;36.63;96830.97;5005792;28;19952;-72
2022/03/08 09:06:22;;;;;;;;;;;;;;;6.12;36.62;96830.00;4993582;28;20401;-72
2022/03/08 09:08:48;;;;;;;;;;;;;;;6.27;34.40;96833.38;5003719;28;19952;-73
2022/03/08 09:11:14;;;;;;;;;;;;;;;5.80;35.38;96832.72;5001211;28;19982;-73
2022/03/08 09:13:40;;;;;;;;;;;;;;;5.51;35.29;96835.28;5005354;28;20055;-73
2022/03/08 09:16:06;;;;;;;;;;;;;;;5.15;36.08;96830.69;5005299;28;19981;-72
2022/03/08 09:18:32;;;;;;;;;;;;;;;5.12;35.37;96820.63;5007090;28;19961;-72
2022/03/08 09:20:58;;;;;;;;;;;;;;;5.06;36.66;96829.91;5008663;28;19965;-72
2022/03/08 09:23:24;;;;;;;;;;;;;;;5.02;35.82;96831.28;5007718;28;19959;-72
2022/03/08 09:25:50;;;;;;;;;;;;;;;5.02;35.79;96833.88;5001004;28;20012;-72
2022/03/08 09:28:16;;;;;;;;;;;;;;;5.06;35.76;96825.53;5003999;28;19959;-73
2022/03/08 09:30:43;;;;;;;;;;;;;;;4.86;35.38;96821.78;5010867;28;20036;-72
2022/03/08 09:33:09;;;;;;;;;;;;;;;4.88;36.03;96818.03;5005841;28;19971;-72
2022/03/08 09:35:35;;;;;;;;;;;;;;;5.07;35.81;96815.94;5001793;28;19958;-73
2022/03/08 09:38:02;;;;;;;;;;;;;;;5.34;34.56;96812.00;5002436;28;19957;-73
2022/03/08 09:40:28;;;;;;;;;;;;;;;5.07;34.40;96821.16;5008277;28;19963;-72
2022/03/08 09:42:54;;;;;;;;;;;;;;;4.91;34.12;96821.25;5006548;28;19958;-73
2022/03/08 09:45:20;;;;;;;;;;;;;;;5.06;34.83;96816.91;5000126;28;19979;-73
2022/03/08 09:47:46;;;;;;;;;;;;;;;5.23;34.67;96815.03;5011899;28;20337;-72
2022/03/08 09:50:13;;;;;;;;;;;;;;;5.35;34.06;96821.41;5008019;28;20364;-73
2022/03/08 09:52:41;;;;;;;;;;;;;;;5.61;34.54;96815.81;5009256;28;19971;-73
2022/03/08 09:55:10;;;;;;;;;;;;;;;5.55;33.03;96815.72;4998855;28;20351;-73
2022/03/08 09:57:35;;;;;;;;;;;;;;;5.22;33.33;96813.41;4985261;28;19963;-73
2022/03/08 10:00:02;;;;;;;;;;;;;;;5.25;34.22;96820.88;5011043;28;19950;-72
2022/03/08 10:02:51;;;;;;;;;;;;;;;5.25;33.93;96813.06;5002508;28;19967;-72
2022/03/08 10:05:21;;;;;;;;;;;;;;;5.49;34.35;96812.84;5001353;28;19958;-73
2022/03/08 10:08:13;;;;;;;;;;;;;;;5.48;33.26;96810.41;5004921;28;19966;-73
2022/03/08 10:10:58;;;;;;;;;;;;;;;5.60;33.91;96801.19;5008240;28;19951;-73
2022/03/08 10:13:26;;;;;;;;;;;;;;;5.61;33.04;96802.81;5004677;28;19966;-73
2022/03/08 10:16:06;;;;;;;;;;;;;;;5.69;33.45;96797.53;5005075;28;19953;-73
2022/03/08 10:18:34;;;;;;;;;;;;;;;5.94;34.45;96789.44;5008338;28;19952;-73
2022/03/08 10:21:00;;;;;;;;;;;;;;;5.98;33.80;96790.75;5005535;28;20338;-73
2022/03/08 10:23:26;;;;;;;;;;;;;;;6.02;34.54;96791.19;5006059;28;19969;-73
2022/03/08 10:25:52;;;;;;;;;;;;;;;5.93;33.66;96774.84;5000740;28;19965;-73
2022/03/08 10:28:18;;;;;;;;;;;;;;;6.01;33.31;96781.78;5009159;28;19957;-73
2022/03/08 10:30:44;;;;;;;;;;;;;;;6.06;33.07;96789.84;5009549;28;20055;-73
2022/03/08 10:33:11;;;;;;;;;;;;;;;6.01;33.35;96774.78;5003348;28;20391;-73
2022/03/08 10:35:41;;;;;;;;;;;;;;;6.03;33.23;96775.41;5005108;28;19962;-74
2022/03/08 10:38:08;;;;;;;;;;;;;;;6.18;33.13;96772.78;5008654;28;19958;-72
2022/03/08 10:40:35;;;;;;;;;;;;;;;6.17;32.02;96778.16;5005843;28;19949;-73
2022/03/08 10:43:03;;;;;;;;;;;;;;;6.06;31.89;96775.03;5003538;28;19953;-73
2022/03/08 10:45:30;;;;;;;;;;;;;;;6.03;32.12;96766.78;5004479;28;19976;-73
2022/03/08 10:47:57;;;;;;;;;;;;;;;6.13;33.23;96763.88;5000972;28;19972;-73
2022/03/08 10:50:24;;;;;;;;;;;;;;;6.22;32.63;96755.81;4985561;28;19971;-73
2022/03/08 10:52:52;;;;;;;;;;;;;;;6.28;31.45;96759.47;5002397;28;20291;-73
2022/03/08 10:55:18;;;;;;;;;;;;;;;6.16;31.05;96766.16;5002711;28;20318;-73
2022/03/08 10:57:49;;;;;;;;;;;;;;;6.13;32.41;96764.69;5005733;28;20000;-73
2022/03/08 11:00:16;;;;;;;;;;;;;;;6.29;32.14;96763.69;5006047;28;19957;-73
2022/03/08 11:02:46;;;;;;;;;;;;;;;6.30;32.11;96760.91;5009679;28;20422;-73
2022/03/08 11:05:12;;;;;;;;;;;;;;;6.44;30.49;96756.63;5003940;28;19986;-73
2022/03/08 11:07:38;;;;;;;;;;;;;;;6.55;30.95;96757.97;4999435;28;19950;-73
2022/03/08 11:10:05;;;;;;;;;;;;;;;6.61;31.66;96749.41;5002890;28;20422;-73
2022/03/08 11:12:31;;;;;;;;;;;;;;;6.75;31.22;96746.94;5004580;28;19971;-73
2022/03/08 11:14:57;;;;;;;;;;;;;;;7.00;31.28;96748.16;5005906;28;20331;-73
2022/03/08 11:17:23;;;;;;;;;;;;;;;7.32;29.66;96746.00;5002187;28;19957;-73
2022/03/08 11:19:49;;;;;;;;;;;;;;;7.47;29.27;96745.91;5001325;28;20397;-73
2022/03/08 11:22:17;;;;;;;;;;;;;;;7.56;29.76;96749.19;5002943;28;19958;-74
2022/03/08 11:24:44;;;;;;;;;;;;;;;7.84;28.98;96741.31;5004073;28;19968;-73
2022/03/08 11:27:11;;;;;;;;;;;;;;;8.15;29.28;96746.09;5010704;28;20370;-74
2022/03/08 11:29:38;;;;;;;;;;;;;;;8.35;27.85;96738.31;5003317;28;19961;-73
2022/03/08 11:32:05;;;;;;;;;;;;;;;8.27;27.09;96746.31;5001350;28;20323;-74
2022/03/08 11:34:36;;;;;;;;;;;;;;;8.41;28.07;96731.53;5003568;28;20439;-73
2022/03/08 11:37:07;;;;;;;;;;;;;;;8.57;27.64;96736.41;4998591;28;19954;-74
2022/03/08 11:39:39;;;;;;;;;;;;;;;8.49;27.51;96733.97;5000799;28;20415;-74
2022/03/08 11:42:18;;;;;;;;;;;;;;;8.52;26.97;96739.63;4998183;28;19963;-74
2022/03/08 11:44:57;;;;;;;;;;;;;;;8.24;26.73;96736.28;5011689;28;20356;-73
2022/03/08 11:47:34;;;;;;;;;;;;;;;8.23;26.34;96732.03;4999768;28;19958;-73
2022/03/08 11:50:00;;;;;;;;;;;;;;;8.22;27.76;96739.09;5007953;28;20315;-74
2022/03/08 11:52:30;;;;;;;;;;;;;;;8.22;27.96;96726.00;5004016;28;20450;-73
2022/03/08 11:54:56;;;;;;;;;;;;;;;8.26;27.25;96731.66;5007073;28;19977;-73
2022/03/08 11:57:41;;;;;;;;;;;;;;;8.34;27.08;96731.50;5006792;28;19969;-73
2022/03/08 12:00:16;;;;;;;;;;;;;;;8.57;25.97;96725.97;5011126;28;19955;-74
2022/03/08 12:02:50;;;;;;;;;;;;;;;8.59;27.27;96734.41;5004747;28;19948;-74
2022/03/08 12:05:35;;;;;;;;;;;;;;;8.46;24.94;96736.97;5006790;28;20421;-74
2022/03/08 12:08:19;;;;;;;;;;;;;;;8.45;25.83;96732.75;5003754;28;19958;-73
2022/03/08 12:10:47;;;;;;;;;;;;;;;8.39;26.29;96738.75;4991628;28;19947;-74
2022/03/08 12:13:13;;;;;;;;;;;;;;;8.48;26.71;96735.78;5005577;28;20319;-73
2022/03/08 12:15:57;;;;;;;;;;;;;;;8.46;25.95;96731.75;4988699;28;20003;-73
2022/03/08 12:18:32;;;;;;;;;;;;;;;8.52;26.46;96730.94;4995552;28;20400;-73
2022/03/08 12:21:16;;;;;;;;;;;;;;;8.60;26.57;96725.53;5000832;28;20425;-74
2022/03/08 12:23:53;;;;;;;;;;;;;;;8.73;26.81;96725.59;5008470;28;19947;-73
2022/03/08 12:26:37;;;;;;;;;;;;;;;8.78;26.79;96718.94;5006457;28;19961;-73
2022/03/08 12:29:02;;;;;;;;;;;;;;;8.64;25.54;96720.75;5005157;28;20430;-73
2022/03/08 12:31:28;;;;;;;;;;;;;;;8.56;25.75;96720.91;5006351;28;19948;-73
2022/03/08 12:34:02;;;;;;;;;;;;;;;8.66;26.13;96716.91;5006940;28;20028;-72
2022/03/08 12:36:28;;;;;;;;;;;;;;;8.69;25.68;96727.00;5005299;28;19947;-72
2022/03/08 12:38:54;;;;;;;;;;;;;;;8.66;25.41;96726.56;5002594;28;19950;-72
2022/03/08 12:41:27;;;;;;;;;;;;;;;8.70;26.25;96717.31;5011073;28;19961;-72
2022/03/08 12:44:00;;;;;;;;;;;;;;;8.91;26.99;96721.56;5009215;28;19951;-73
2022/03/08 12:46:26;;;;;;;;;;;;;;;8.96;26.51;96713.91;5006093;28;19967;-72
2022/03/08 12:48:53;;;;;;;;;;;;;;;9.08;26.06;96717.53;5001503;28;20427;-72
2022/03/08 12:51:20;;;;;;;;;;;;;;;9.00;26.00;96707.28;5006317;28;19961;-72
2022/03/08 12:53:49;;;;;;;;;;;;;;;8.96;26.17;96713.13;5010863;28;19955;-73